Time;durP1;ratioP1;P1;durP2;ratioP2;P2;SDS_P1;SDS_P2;PMS_P1;PMS_P2;Temp;Humidity;BMP_temperature;BMP_pressure;BME280_temperature;BME280_humidity;BME280_pressure;Samples;Min_cycle;Max_cycle;Signal;HPM_P1;HPM_P2
2022/07/21 00:02:37;;;;;;;5.67;4.80;;;24.10;99.90;;;;;;5100049;28;20447;-82
2022/07/21 00:05:23;;;;;;;6.68;5.90;;;24.20;99.90;;;;;;5098065;28;20412;-82
2022/07/21 00:08:07;;;;;;;7.07;5.87;;;24.40;99.90;;;;;;5101021;28;20166;-82
2022/07/21 00:10:52;;;;;;;6.10;5.60;;;24.20;99.90;;;;;;5100259;28;20500;-82
2022/07/21 00:13:37;;;;;;;6.37;5.73;;;24.20;99.90;;;;;;5100634;28;20915;-81
2022/07/21 00:16:21;;;;;;;6.97;6.37;;;24.10;99.90;;;;;;5071641;28;20415;-82
2022/07/21 00:19:06;;;;;;;5.83;5.33;;;23.90;99.90;;;;;;5102835;28;20891;-82
2022/07/21 00:21:50;;;;;;;5.90;5.30;;;23.90;99.90;;;;;;5112138;28;20416;-78
2022/07/21 00:24:35;;;;;;;5.93;5.43;;;23.80;99.90;;;;;;5114001;28;20380;-82
2022/07/21 00:27:19;;;;;;;8.77;6.17;;;23.90;99.90;;;;;;5102610;28;20873;-81
2022/07/21 00:30:06;;;;;;;7.10;6.50;;;23.90;99.90;;;;;;5099134;28;20396;-81
2022/07/21 00:32:51;;;;;;;7.20;5.73;;;24.10;99.90;;;;;;5098921;28;20411;-81
2022/07/21 00:35:35;;;;;;;7.70;5.43;;;23.90;99.90;;;;;;5099906;28;20399;-81
2022/07/21 00:38:20;;;;;;;6.47;4.80;;;23.80;99.90;;;;;;5099412;28;20430;-81
2022/07/21 00:41:04;;;;;;;5.83;5.23;;;23.80;99.90;;;;;;5100776;28;20446;-82
2022/07/21 00:43:48;;;;;;;7.43;5.23;;;24.00;99.90;;;;;;5102690;28;20380;-79
2022/07/21 00:46:32;;;;;;;6.37;5.63;;;23.90;99.90;;;;;;5114375;28;20387;-79
2022/07/21 00:49:18;;;;;;;5.93;5.33;;;23.90;99.90;;;;;;5114234;28;20736;-79
2022/07/21 00:52:03;;;;;;;6.07;4.30;;;23.90;99.90;;;;;;5113460;28;20538;-81
2022/07/21 00:54:48;;;;;;;5.23;4.80;;;23.90;99.90;;;;;;5100907;28;20436;-82
2022/07/21 00:57:33;;;;;;;6.17;5.57;;;23.80;99.90;;;;;;5099829;28;20508;-81
2022/07/21 01:00:21;;;;;;;7.30;5.57;;;24.00;99.90;;;;;;5099905;28;20392;-81
2022/07/21 01:03:07;;;;;;;6.90;5.40;;;23.70;99.90;;;;;;5099720;28;20475;-82
2022/07/21 01:05:52;;;;;;;6.30;5.70;;;23.60;99.90;;;;;;5099609;28;20468;-81
2022/07/21 01:08:36;;;;;;;5.07;4.67;;;23.60;99.90;;;;;;5084444;28;20391;-81
2022/07/21 01:11:23;;;;;;;5.47;4.87;;;23.40;99.90;;;;;;5099380;28;20467;-83
2022/07/21 01:14:08;;;;;;;5.90;5.40;;;23.50;99.90;;;;;;5098293;28;20388;-82
2022/07/21 01:16:53;;;;;;;6.57;5.00;;;23.50;99.90;;;;;;5099456;28;20395;-82
2022/07/21 01:19:38;;;;;;;9.63;5.90;;;23.60;99.90;;;;;;5083819;28;20464;-82
2022/07/21 01:22:22;;;;;;;7.63;6.30;;;23.50;99.90;;;;;;5099094;28;20406;-82
2022/07/21 01:25:08;;;;;;;7.80;6.20;;;23.40;99.90;;;;;;5099218;28;20523;-82
2022/07/21 01:27:53;;;;;;;7.10;5.20;;;23.40;99.90;;;;;;5083092;28;20770;-82
2022/07/21 01:30:38;;;;;;;7.43;6.30;;;23.50;99.90;;;;;;5098235;28;20462;-82
2022/07/21 01:33:23;;;;;;;6.50;5.90;;;23.60;99.90;;;;;;5098196;28;20391;-82
2022/07/21 01:36:07;;;;;;;7.33;6.60;;;23.60;99.90;;;;;;5099076;28;20429;-81
2022/07/21 01:41:55;;;;;;;9.23;5.83;;;23.80;99.90;;;;;;5100638;28;20391;-82
2022/07/21 01:44:39;;;;;;;7.70;5.37;;;23.90;99.90;;;;;;5101969;28;20472;-82
2022/07/21 01:47:24;;;;;;;5.57;5.07;;;23.90;99.90;;;;;;5103176;28;20446;-82
2022/07/21 01:50:08;;;;;;;7.67;5.80;;;23.90;99.90;;;;;;5102737;28;20722;-82
2022/07/21 01:52:54;;;;;;;5.73;5.20;;;23.90;99.90;;;;;;5101966;28;20668;-81
2022/07/21 01:55:38;;;;;;;7.33;5.37;;;23.90;99.90;;;;;;5101269;28;20415;-82
2022/07/21 01:58:23;;;;;;;10.70;6.73;;;24.00;99.90;;;;;;5071346;28;20411;-82
2022/07/21 02:01:07;;;;;;;10.50;6.70;;;23.90;99.90;;;;;;5101316;28;20527;-81
2022/07/21 02:03:54;;;;;;;7.37;6.70;;;23.80;99.90;;;;;;5101912;28;20419;-81
2022/07/21 02:06:38;;;;;;;6.90;6.10;;;23.60;99.90;;;;;;5101531;28;20514;-82
2022/07/21 02:09:22;;;;;;;8.23;5.90;;;23.40;99.90;;;;;;5071804;28;20442;-81
2022/07/21 02:12:08;;;;;;;6.60;5.27;;;23.30;99.90;;;;;;5099728;28;20458;-81
2022/07/21 02:14:52;;;;;;;7.20;6.47;;;23.50;99.90;;;;;;5101734;28;20437;-80
2022/07/21 02:17:36;;;;;;;6.73;6.00;;;23.60;99.90;;;;;;5100793;28;20773;-81
2022/07/21 02:20:21;;;;;;;7.30;6.60;;;23.60;99.90;;;;;;5101088;28;20380;-81
2022/07/21 02:23:05;;;;;;;9.43;6.50;;;23.50;99.90;;;;;;5101281;28;20437;-82
2022/07/21 02:25:52;;;;;;;7.30;6.60;;;23.50;99.90;;;;;;5102482;28;20836;-82
2022/07/21 02:28:36;;;;;;;9.80;6.50;;;23.60;99.90;;;;;;5101118;28;20453;-81
2022/07/21 02:31:20;;;;;;;6.77;6.20;;;23.40;99.90;;;;;;5101444;28;20443;-81
2022/07/21 02:34:06;;;;;;;8.50;7.03;;;23.50;99.90;;;;;;5101784;28;20398;-81
2022/07/21 02:36:50;;;;;;;7.70;6.93;;;23.40;99.90;;;;;;5101051;28;20389;-81
2022/07/21 02:39:34;;;;;;;6.40;5.60;;;23.40;99.90;;;;;;5101374;28;20375;-81
2022/07/21 02:42:18;;;;;;;8.00;6.73;;;23.00;99.90;;;;;;5101428;28;20392;-81
2022/07/21 02:45:05;;;;;;;7.57;6.80;;;22.70;99.90;;;;;;5100721;28;20484;-81
2022/07/21 02:47:51;;;;;;;7.63;6.90;;;22.60;99.90;;;;;;5100824;28;20888;-81
2022/07/21 02:50:39;;;;;;;11.47;6.87;;;22.90;99.90;;;;;;5100359;28;20426;-81
2022/07/21 02:53:23;;;;;;;10.03;6.67;;;23.00;99.90;;;;;;5100763;28;20400;-81
2022/07/21 02:56:08;;;;;;;8.70;7.33;;;22.90;99.90;;;;;;5085011;28;20419;-81
2022/07/21 02:58:52;;;;;;;10.23;7.50;;;22.90;99.90;;;;;;5100081;28;20387;-81
2022/07/21 03:01:37;;;;;;;7.70;7.00;;;23.00;99.90;;;;;;5100317;28;20388;-81
2022/07/21 03:04:21;;;;;;;7.30;6.50;;;23.10;99.90;;;;;;5085090;28;20406;-82
2022/07/21 03:07:06;;;;;;;8.57;6.70;;;22.40;99.90;;;;;;5100552;28;20396;-81
2022/07/21 03:09:50;;;;;;;7.47;6.70;;;22.40;99.90;;;;;;5100692;28;20380;-82
2022/07/21 03:12:34;;;;;;;8.50;6.40;;;22.50;99.90;;;;;;5105503;28;20879;-79
2022/07/21 03:15:19;;;;;;;7.43;6.70;;;22.60;99.90;;;;;;5115352;28;20860;-79
2022/07/21 03:18:03;;;;;;;8.00;7.27;;;22.70;99.90;;;;;;5114364;28;20945;-79
2022/07/21 03:20:48;;;;;;;7.80;6.90;;;22.60;99.90;;;;;;5113939;28;20411;-79
2022/07/21 03:23:32;;;;;;;9.90;8.03;;;22.60;99.90;;;;;;5103643;28;20403;-81
2022/07/21 03:26:17;;;;;;;16.00;6.50;;;22.30;99.90;;;;;;5101244;28;20930;-81
2022/07/21 03:29:01;;;;;;;6.60;6.10;;;21.80;99.90;;;;;;5100534;28;20461;-81
2022/07/21 03:31:46;;;;;;;11.83;7.83;;;21.90;99.90;;;;;;5100920;28;20490;-81
2022/07/21 03:34:30;;;;;;;8.27;7.45;;;21.90;99.90;;;;;;5085381;28;20392;-81
2022/07/21 03:37:15;;;;;;;8.80;7.90;;;22.10;99.90;;;;;;5110106;28;20158;-81
2022/07/21 03:39:59;;;;;;;8.90;7.97;;;21.70;99.90;;;;;;5107714;28;20399;-82
2022/07/21 03:42:45;;;;;;;8.73;7.87;;;21.50;99.90;;;;;;5101295;28;20407;-81
2022/07/21 03:45:32;;;;;;;9.87;8.97;;;21.40;99.90;;;;;;5100626;28;20456;-81
2022/07/21 03:48:18;;;;;;;9.13;7.43;;;21.60;99.90;;;;;;5119446;28;20449;-81
2022/07/21 03:51:03;;;;;;;9.50;7.63;;;21.80;99.90;;;;;;5125576;27;20453;-81
2022/07/21 03:53:47;;;;;;;12.97;8.90;;;21.90;99.90;;;;;;5138190;27;20405;-81
2022/07/21 03:56:31;;;;;;;9.70;8.90;;;21.90;99.90;;;;;;5140778;27;20468;-81
2022/07/21 03:59:15;;;;;;;8.60;7.70;;;21.70;99.90;;;;;;5141338;27;20405;-81
2022/07/21 04:02:00;;;;;;;11.33;7.87;;;21.60;99.90;;;;;;5141286;27;20456;-81
2022/07/21 04:04:44;;;;;;;10.80;9.07;;;21.60;99.90;;;;;;5141236;27;20401;-81
2022/07/21 04:07:28;;;;;;;10.57;9.50;;;21.50;99.90;;;;;;5147724;27;20445;-81
2022/07/21 04:10:17;;;;;;;11.90;8.77;;;21.50;99.90;;;;;;5128388;27;20533;-81
2022/07/21 04:13:04;;;;;;;15.33;9.80;;;21.30;99.90;;;;;;5144258;27;20409;-82
2022/07/21 04:15:49;;;;;;;9.80;8.83;;;21.30;99.90;;;;;;5144727;27;20386;-82
2022/07/21 04:18:33;;;;;;;10.27;9.00;;;21.20;99.90;;;;;;5143641;27;20393;-82
2022/07/21 04:21:17;;;;;;;9.87;8.90;;;21.20;99.90;;;;;;5113441;27;20382;-81
2022/07/21 04:24:01;;;;;;;11.70;9.17;;;21.10;99.90;;;;;;5143051;27;20401;-82
2022/07/21 04:26:46;;;;;;;9.63;8.73;;;21.30;99.90;;;;;;5142732;27;20394;-81
2022/07/21 04:29:30;;;;;;;9.27;8.30;;;21.40;99.90;;;;;;5143397;27;20386;-81
2022/07/21 04:32:15;;;;;;;11.30;10.03;;;21.20;99.90;;;;;;5142982;27;20575;-82
2022/07/21 04:34:59;;;;;;;15.03;8.47;;;21.20;99.90;;;;;;5143986;27;20386;-81
2022/07/21 04:37:44;;;;;;;13.83;9.60;;;21.30;99.90;;;;;;5145426;27;20413;-80
2022/07/21 04:40:29;;;;;;;10.40;9.33;;;21.40;99.90;;;;;;5149803;27;20883;-81
2022/07/21 04:43:14;;;;;;;10.73;9.63;;;21.40;99.90;;;;;;5149285;27;20411;-81
2022/07/21 04:45:58;;;;;;;9.93;8.80;;;21.50;99.90;;;;;;5148546;27;20431;-81
2022/07/21 04:48:44;;;;;;;13.23;10.60;;;21.70;99.90;;;;;;5147824;27;20406;-80
2022/07/21 04:51:28;;;;;;;12.13;8.50;;;21.60;99.90;;;;;;5145474;28;20494;-81
2022/07/21 04:54:13;;;;;;;12.80;9.27;;;21.90;99.90;;;;;;5134503;28;20405;-80
2022/07/21 04:56:59;;;;;;;16.50;9.47;;;21.90;99.90;;;;;;5149527;28;20463;-80
2022/07/21 04:59:43;;;;;;;11.93;9.90;;;21.80;99.90;;;;;;5133674;28;20412;-81
2022/07/21 05:02:28;;;;;;;11.23;10.10;;;21.50;99.90;;;;;;5147383;28;20599;-81
2022/07/21 05:05:13;;;;;;;11.23;10.07;;;21.30;99.90;;;;;;5148415;28;20409;-81
2022/07/21 05:07:57;;;;;;;12.70;11.37;;;21.60;99.90;;;;;;5133445;28;20394;-80
2022/07/21 05:10:41;;;;;;;11.53;9.80;;;21.70;99.90;;;;;;5148728;28;20559;-80
2022/07/21 05:13:25;;;;;;;12.47;11.20;;;21.90;99.90;;;;;;5145191;28;20947;-80
2022/07/21 05:16:10;;;;;;;9.97;8.97;;;21.80;99.90;;;;;;5147684;27;20452;-82
2022/07/21 05:18:55;;;;;;;10.47;9.43;;;21.70;99.90;;;;;;5151273;27;20456;-82
2022/07/21 05:21:40;;;;;;;11.87;10.50;;;21.40;99.90;;;;;;5139711;27;20954;-78
2022/07/21 05:24:24;;;;;;;12.03;10.73;;;21.10;99.90;;;;;;5139849;27;20386;-81
2022/07/21 05:27:10;;;;;;;13.70;12.20;;;21.10;99.90;;;;;;5124673;28;20519;-79
2022/07/21 05:29:54;;;;;;;12.30;11.03;;;21.20;99.90;;;;;;5132273;28;20426;-79
2022/07/21 05:32:39;;;;;;;12.33;11.13;;;21.40;99.90;;;;;;5135607;28;20403;-78
2022/07/21 05:35:24;;;;;;;14.87;12.60;;;21.70;99.90;;;;;;5134747;28;20411;-79
2022/07/21 05:38:08;;;;;;;14.43;11.17;;;21.70;99.90;;;;;;5143761;27;20402;-80
2022/07/21 05:40:53;;;;;;;13.63;12.33;;;21.40;99.90;;;;;;5136408;27;20413;-79
2022/07/21 05:43:37;;;;;;;14.03;11.10;;;21.40;99.90;;;;;;5133940;28;20402;-79
2022/07/21 05:46:22;;;;;;;14.67;13.13;;;21.30;99.90;;;;;;5115801;28;20398;-81
2022/07/21 05:49:06;;;;;;;14.03;12.60;;;21.60;99.90;;;;;;5128543;28;20449;-82
2022/07/21 05:51:50;;;;;;;14.47;12.97;;;21.40;99.90;;;;;;5080852;28;20494;-82
2022/07/21 05:54:35;;;;;;;17.77;14.50;;;21.50;99.90;;;;;;5116351;28;20480;-82
2022/07/21 05:57:19;;;;;;;14.90;12.40;;;21.40;99.90;;;;;;5118272;28;20465;-82
2022/07/21 06:00:04;;;;;;;18.90;14.20;;;21.30;99.90;;;;;;5118106;28;20441;-82
2022/07/21 06:02:50;;;;;;;15.50;13.33;;;21.50;99.90;;;;;;5116585;28;20482;-81
2022/07/21 06:05:34;;;;;;;15.03;12.47;;;21.70;99.90;;;;;;5127389;27;20500;-78
2022/07/21 06:08:18;;;;;;;15.50;14.00;;;21.80;99.90;;;;;;5131652;27;20502;-81
2022/07/21 06:11:03;;;;;;;17.00;14.10;;;22.10;99.90;;;;;;5130983;28;20462;-79
2022/07/21 06:13:48;;;;;;;14.30;12.80;;;22.20;99.90;;;;;;5114481;28;20423;-82
2022/07/21 06:16:32;;;;;;;14.37;12.90;;;22.30;99.90;;;;;;5117515;28;20446;-82
2022/07/21 06:19:17;;;;;;;16.70;13.83;;;21.80;99.90;;;;;;5109558;28;20476;-82
2022/07/21 06:22:02;;;;;;;18.10;13.90;;;21.50;99.90;;;;;;5113656;28;20437;-82
2022/07/21 06:24:47;;;;;;;14.23;12.73;;;21.70;99.90;;;;;;5113020;28;20437;-82
2022/07/21 06:27:32;;;;;;;17.37;14.87;;;21.60;99.90;;;;;;5126268;27;20414;-82
2022/07/21 06:30:16;;;;;;;14.73;13.30;;;22.10;99.90;;;;;;5111477;28;20473;-82
2022/07/21 06:33:01;;;;;;;15.27;13.77;;;21.90;99.90;;;;;;5102802;28;20415;-81
2022/07/21 06:35:46;;;;;;;15.27;13.70;;;21.70;99.90;;;;;;5115218;27;20810;-83
2022/07/21 06:38:31;;;;;;;19.03;15.10;;;22.00;99.90;;;;;;5111471;28;20585;-81
2022/07/21 06:41:15;;;;;;;15.70;14.03;;;21.90;99.90;;;;;;5108609;28;20835;-82
2022/07/21 06:44:01;;;;;;;16.10;14.40;;;22.30;99.90;;;;;;5114903;28;20974;-82
2022/07/21 06:46:46;;;;;;;22.13;13.93;;;22.10;99.90;;;;;;5098348;28;20422;-82
2022/07/21 06:49:31;;;;;;;14.13;12.70;;;22.10;99.90;;;;;;5103089;28;20446;-82
2022/07/21 06:52:16;;;;;;;17.20;14.30;;;22.00;99.90;;;;;;5115315;27;20455;-83
2022/07/21 06:55:01;;;;;;;17.73;14.30;;;21.90;99.90;;;;;;5114598;28;20439;-81
2022/07/21 06:57:45;;;;;;;19.90;13.90;;;22.20;99.90;;;;;;5112903;27;20423;-81
2022/07/21 07:00:30;;;;;;;17.60;15.87;;;22.00;99.90;;;;;;5113732;27;20480;-81
2022/07/21 07:03:14;;;;;;;20.30;14.77;;;22.30;99.90;;;;;;5116699;27;20552;-82
2022/07/21 07:05:59;;;;;;;16.57;14.87;;;22.50;99.90;;;;;;5113383;28;20486;-82
2022/07/21 07:08:43;;;;;;;15.70;13.77;;;22.60;99.90;;;;;;5106468;28;20431;-82
2022/07/21 07:11:28;;;;;;;15.30;13.90;;;22.90;99.90;;;;;;5122624;27;20554;-81
2022/07/21 07:14:13;;;;;;;17.00;13.00;;;22.30;99.90;;;;;;5113833;28;20442;-81
2022/07/21 07:17:00;;;;;;;14.83;13.50;;;22.60;99.90;;;;;;5113007;28;20623;-81
2022/07/21 07:19:45;;;;;;;14.60;13.20;;;22.90;99.90;;;;;;5107826;27;20451;-83
2022/07/21 07:22:31;;;;;;;15.33;13.80;;;23.00;99.90;;;;;;5119305;27;20487;-82
2022/07/21 07:25:17;;;;;;;15.30;13.53;;;23.20;99.90;;;;;;5109310;27;20512;-82
2022/07/21 07:28:02;;;;;;;16.37;13.83;;;23.20;99.90;;;;;;5118188;27;20463;-82
2022/07/21 07:30:48;;;;;;;15.20;13.60;;;23.00;99.90;;;;;;5121825;27;20470;-81
2022/07/21 07:33:32;;;;;;;15.53;13.93;;;22.40;99.90;;;;;;5120342;27;20426;-82
2022/07/21 07:36:17;;;;;;;15.20;13.53;;;22.40;99.90;;;;;;5118121;27;20416;-81
2022/07/21 07:39:02;;;;;;;15.47;13.27;;;22.30;99.90;;;;;;5120007;28;20449;-79
2022/07/21 07:41:47;;;;;;;17.23;13.40;;;22.80;99.90;;;;;;5128471;27;20451;-81
2022/07/21 07:44:32;;;;;;;16.80;14.57;;;22.90;99.90;;;;;;5102227;28;20446;-81
2022/07/21 07:47:16;;;;;;;23.63;18.70;;;22.60;99.90;;;;;;5100801;27;20485;-83
2022/07/21 07:50:01;;;;;;;18.83;14.17;;;22.60;99.90;;;;;;5084876;27;20426;-82
2022/07/21 07:52:46;;;;;;;14.33;12.83;;;22.70;99.90;;;;;;5114689;27;20473;-81
2022/07/21 07:55:31;;;;;;;13.57;12.17;;;22.70;99.90;;;;;;5112654;27;20505;-82
2022/07/21 07:58:16;;;;;;;13.43;11.60;;;23.20;99.90;;;;;;5053034;28;20437;-82
2022/07/21 08:01:01;;;;;;;11.70;10.50;;;22.80;99.90;;;;;;5046107;28;20524;-80
2022/07/21 08:03:45;;;;;;;21.33;12.50;;;22.70;99.90;;;;;;5038707;28;20589;-81
2022/07/21 08:06:30;;;;;;;13.17;11.87;;;22.70;99.90;;;;;;5054103;28;20461;-81
2022/07/21 08:09:15;;;;;;;13.83;12.40;;;23.10;99.90;;;;;;5051004;28;20441;-82
2022/07/21 08:11:59;;;;;;;15.00;12.30;;;22.90;99.90;;;;;;5039658;28;20906;-82
2022/07/21 08:14:43;;;;;;;12.77;11.50;;;23.20;99.90;;;;;;5051403;28;20476;-81
2022/07/21 08:17:28;;;;;;;13.83;12.57;;;23.40;99.90;;;;;;5050283;28;20473;-81
2022/07/21 08:20:13;;;;;;;11.70;10.50;;;23.80;99.90;;;;;;5052583;28;20422;-83
2022/07/21 08:22:57;;;;;;;10.13;9.27;;;24.10;99.90;;;;;;5054380;28;20485;-80
2022/07/21 08:25:43;;;;;;;11.10;8.80;;;24.00;99.90;;;;;;5051999;28;20461;-79
2022/07/21 08:28:27;;;;;;;10.00;9.07;;;23.90;99.90;;;;;;5059086;28;20444;-82
2022/07/21 08:31:12;;;;;;;9.67;8.70;;;24.20;99.90;;;;;;5093352;28;20463;-82
2022/07/21 08:33:56;;;;;;;10.47;9.47;;;24.40;99.90;;;;;;5092634;28;20450;-81
2022/07/21 08:36:41;;;;;;;8.60;7.77;;;24.70;99.90;;;;;;5089377;28;20976;-81
2022/07/21 08:39:25;;;;;;;8.30;7.40;;;24.90;99.90;;;;;;5082055;28;20454;-81
2022/07/21 08:42:12;;;;;;;10.17;8.40;;;25.30;99.90;;;;;;5096890;28;20485;-82
2022/07/21 08:44:57;;;;;;;12.60;9.20;;;25.30;99.90;;;;;;5089319;28;20508;-82
2022/07/21 08:47:42;;;;;;;12.00;7.17;;;25.50;99.90;;;;;;5077317;28;20427;-82
2022/07/21 08:50:30;;;;;;;8.30;7.50;;;25.60;99.90;;;;;;5079857;28;20542;-82
2022/07/21 08:53:14;;;;;;;9.80;8.90;;;25.60;99.90;;;;;;5082225;28;20861;-82
2022/07/21 08:55:59;;;;;;;10.20;7.93;;;25.70;99.90;;;;;;5097853;28;20451;-80
2022/07/21 08:58:45;;;;;;;8.90;8.00;;;25.40;99.90;;;;;;5087778;28;20423;-81
2022/07/21 09:01:29;;;;;;;9.93;7.43;;;25.50;99.90;;;;;;5090506;28;20493;-81
2022/07/21 09:04:31;;;;;;;8.93;8.20;;;25.50;99.90;;;;;;5084767;28;20478;-81
2022/07/21 09:07:15;;;;;;;10.97;8.63;;;25.50;99.90;;;;;;5090351;28;20483;-81
2022/07/21 09:10:02;;;;;;;9.20;8.30;;;25.50;99.90;;;;;;5088944;28;20447;-81
2022/07/21 09:12:52;;;;;;;9.77;8.77;;;25.40;99.90;;;;;;5046693;28;20428;-82
2022/07/21 09:15:37;;;;;;;8.57;7.77;;;25.20;99.90;;;;;;5072048;28;21051;-81
2022/07/21 09:18:21;;;;;;;8.80;7.90;;;25.70;99.90;;;;;;5074271;28;20488;-81
2022/07/21 09:21:10;;;;;;;9.03;8.13;;;25.70;99.90;;;;;;5089064;28;20424;-81
2022/07/21 09:24:13;;;;;;;8.70;7.80;;;25.70;99.90;;;;;;5078071;28;20559;-82
2022/07/21 09:27:06;;;;;;;10.30;9.03;;;25.90;99.90;;;;;;5080794;28;20475;-82
2022/07/21 09:29:57;;;;;;;9.07;8.17;;;26.00;99.90;;;;;;5091893;28;20426;-82
2022/07/21 09:32:41;;;;;;;9.67;8.77;;;25.30;99.90;;;;;;5080853;28;20502;-81
2022/07/21 09:35:26;;;;;;;10.73;8.30;;;25.60;99.90;;;;;;5080347;28;21138;-83
2022/07/21 09:38:12;;;;;;;9.67;8.70;;;25.50;99.90;;;;;;5082877;28;20436;-82
2022/07/21 09:41:06;;;;;;;8.67;7.80;;;25.60;99.90;;;;;;5093171;28;20445;-82
2022/07/21 09:43:56;;;;;;;8.27;7.57;;;25.70;99.90;;;;;;5083622;28;20475;-82
2022/07/21 09:46:40;;;;;;;8.47;7.63;;;25.70;99.90;;;;;;5078082;28;20446;-82
2022/07/21 09:49:31;;;;;;;9.23;8.27;;;25.80;99.90;;;;;;5078093;28;20426;-82
2022/07/21 09:52:34;;;;;;;8.03;7.23;;;25.80;99.90;;;;;;5085729;28;20574;-83
2022/07/21 09:55:18;;;;;;;10.13;8.70;;;25.60;99.90;;;;;;5086122;28;20418;-83
2022/07/21 09:58:04;;;;;;;7.93;7.23;;;25.80;99.90;;;;;;5085641;28;20513;-81
2022/07/21 10:00:53;;;;;;;7.40;6.53;;;26.00;99.90;;;;;;5069892;28;20432;-80
2022/07/21 10:03:38;;;;;;;7.37;6.57;;;26.30;99.90;;;;;;5100486;27;20797;-83
2022/07/21 10:06:27;;;;;;;9.57;6.27;;;26.70;99.90;;;;;;5082650;28;20484;-81
2022/07/21 10:09:16;;;;;;;10.37;6.10;;;26.70;99.90;;;;;;5111386;28;20473;-81
2022/07/21 10:12:01;;;;;;;7.13;6.43;;;26.60;99.90;;;;;;5095339;28;20461;-81
2022/07/21 10:14:47;;;;;;;8.93;6.10;;;26.80;99.90;;;;;;5060860;28;20814;-81
2022/07/21 10:17:33;;;;;;;7.27;6.57;;;26.70;99.90;;;;;;5075057;28;20485;-81
2022/07/21 10:20:37;;;;;;;6.40;5.30;;;27.00;99.90;;;;;;5060248;28;20420;-82
2022/07/21 10:23:34;;;;;;;5.90;5.40;;;27.10;99.90;;;;;;5054403;28;20432;-83
2022/07/21 10:26:19;;;;;;;4.50;4.20;;;27.40;99.90;;;;;;5046553;28;20433;-81
2022/07/21 10:29:03;;;;;;;5.17;4.67;;;27.60;99.90;;;;;;5057961;28;20487;-83
2022/07/21 10:31:48;;;;;;;5.70;5.10;;;27.60;99.90;;;;;;5058359;28;20624;-83
2022/07/21 10:34:35;;;;;;;8.47;5.03;;;27.70;99.90;;;;;;5071771;28;20432;-83
2022/07/21 10:37:44;;;;;;;5.43;4.90;;;27.60;99.90;;;;;;5073007;28;20466;-83
2022/07/21 10:40:36;;;;;;;7.53;5.50;;;27.40;99.90;;;;;;5072338;28;20436;-83
2022/07/21 10:43:41;;;;;;;5.83;5.33;;;27.40;99.90;;;;;;5074313;28;20443;-82
2022/07/21 10:46:34;;;;;;;5.60;5.10;;;27.20;99.90;;;;;;5104241;28;20459;-82
2022/07/21 10:49:47;;;;;;;6.63;5.70;;;27.60;99.90;;;;;;5109901;28;20481;-82
2022/07/21 10:53:00;;;;;;;4.97;4.57;;;27.80;99.90;;;;;;5094071;28;20455;-83
2022/07/21 10:55:47;;;;;;;5.90;5.40;;;27.80;99.90;;;;;;5102776;28;20551;-82
2022/07/21 10:58:36;;;;;;;8.03;5.90;;;28.00;99.90;;;;;;5089946;28;20488;-80
2022/07/21 11:01:26;;;;;;;5.70;5.20;;;28.20;99.90;;;;;;5107902;27;20571;-81
2022/07/21 11:04:17;;;;;;;6.37;5.77;;;27.90;99.90;;;;;;5107395;27;20505;-83
2022/07/21 11:07:01;;;;;;;7.33;6.60;;;27.70;99.90;;;;;;5086464;28;20434;-81
2022/07/21 11:10:19;;;;;;;8.37;6.80;;;27.40;99.90;;;;;;5087641;28;20716;-83
2022/07/21 11:13:03;;;;;;;5.90;5.37;;;27.50;99.90;;;;;;5098708;27;20458;-83
2022/07/21 11:16:05;;;;;;;9.33;6.90;;;27.70;99.90;;;;;;5103454;28;20524;-82
2022/07/21 11:18:51;;;;;;;6.73;6.07;;;27.80;99.90;;;;;;5090850;28;20434;-80
2022/07/21 11:21:37;;;;;;;6.73;6.23;;;27.80;99.90;;;;;;5053533;28;20482;-80
2022/07/21 11:24:24;;;;;;;5.97;5.57;;;27.60;99.90;;;;;;5053517;28;20452;-81
2022/07/21 11:27:33;;;;;;;10.33;6.37;;;28.10;99.90;;;;;;5028469;28;20956;-82
2022/07/21 11:30:18;;;;;;;5.87;5.37;;;28.20;99.90;;;;;;5022187;28;20841;-80
2022/07/21 11:33:04;;;;;;;5.83;5.30;;;28.00;99.90;;;;;;5026663;28;20482;-81
2022/07/21 11:35:49;;;;;;;7.67;5.40;;;27.60;99.90;;;;;;5010120;28;20485;-82
2022/07/21 11:38:34;;;;;;;5.90;5.30;;;28.40;99.90;;;;;;5025985;28;20430;-81
2022/07/21 11:41:20;;;;;;;4.90;4.47;;;28.20;99.90;;;;;;5021129;28;20448;-80
2022/07/21 11:44:05;;;;;;;4.77;4.17;;;28.70;99.60;;;;;;5029366;28;20953;-82
2022/07/21 11:46:55;;;;;;;4.73;4.33;;;28.00;95.90;;;;;;5043609;28;20441;-81
2022/07/21 11:50:03;;;;;;;4.60;4.23;;;28.40;96.80;;;;;;4996935;28;20975;-82
2022/07/21 11:52:48;;;;;;;4.77;4.37;;;28.80;95.20;;;;;;4986950;28;20449;-82
2022/07/21 11:55:38;;;;;;;4.50;4.20;;;28.30;95.20;;;;;;5028992;28;20892;-80
2022/07/21 11:58:23;;;;;;;5.87;5.10;;;29.20;95.70;;;;;;4980173;28;20505;-82
2022/07/21 12:01:08;;;;;;;4.83;4.33;;;28.20;94.90;;;;;;4992601;28;21214;-82
2022/07/21 12:03:53;;;;;;;5.07;4.67;;;28.20;95.50;;;;;;4990226;28;20572;-81
2022/07/21 12:06:40;;;;;;;4.70;4.20;;;28.90;93.40;;;;;;5013943;28;20523;-82
2022/07/21 12:09:24;;;;;;;5.20;4.80;;;29.70;92.40;;;;;;5017942;28;20417;-83
2022/07/21 12:12:10;;;;;;;6.20;5.60;;;29.90;90.20;;;;;;5024084;28;20588;-81
2022/07/21 12:14:55;;;;;;;4.90;4.37;;;29.30;90.30;;;;;;5026522;28;20449;-82
2022/07/21 12:17:45;;;;;;;5.15;4.70;;;29.70;90.60;;;;;;5014666;28;20430;-84
2022/07/21 12:20:34;;;;;;;6.83;5.10;;;30.10;91.10;;;;;;5010324;28;20250;-84
2022/07/21 12:23:22;;;;;;;5.43;4.95;;;30.70;89.30;;;;;;5023720;28;20215;-83
2022/07/21 12:26:22;;;;;;;4.97;4.57;;;29.40;91.00;;;;;;5024301;28;20305;-83
2022/07/21 12:29:06;;;;;;;4.72;4.32;;;29.90;89.20;;;;;;5005546;28;20179;-83
2022/07/21 12:31:50;;;;;;;5.65;5.07;;;30.40;90.40;;;;;;5031760;28;20218;-83
2022/07/21 12:34:49;;;;;;;5.15;4.75;;;31.50;85.20;;;;;;5023316;28;20183;-83
2022/07/21 12:37:54;;;;;;;5.30;4.82;;;32.00;84.80;;;;;;5009988;28;20313;-84
2022/07/21 12:40:43;;;;;;;5.47;5.05;;;32.50;80.10;;;;;;5045704;28;20198;-83
2022/07/21 12:43:27;;;;;;;4.60;4.28;;;32.40;78.70;;;;;;5054305;28;20197;-84
2022/07/21 12:46:16;;;;;;;5.00;4.57;;;32.30;77.40;;;;;;5055534;28;20202;-83
2022/07/21 12:49:09;;;;;;;6.15;4.78;;;31.00;79.00;;;;;;5069899;28;20237;-80
2022/07/21 12:51:56;;;;;;;5.10;4.70;;;30.90;83.00;;;;;;5082028;28;20210;-83
2022/07/21 12:54:41;;;;;;;4.88;4.57;;;31.10;82.70;;;;;;5081346;28;20282;-81
2022/07/21 12:57:29;;;;;;;4.65;4.25;;;31.80;82.80;;;;;;5085268;28;20230;-80
2022/07/21 13:00:14;;;;;;;5.38;4.95;;;31.50;78.50;;;;;;5113129;28;20177;-83
2022/07/21 13:02:58;;;;;;;4.70;4.40;;;31.10;78.00;;;;;;5115279;28;20343;-83
2022/07/21 13:05:43;;;;;;;4.47;4.18;;;30.50;79.70;;;;;;5098328;28;20673;-83
2022/07/21 13:08:28;;;;;;;5.07;4.68;;;30.00;81.10;;;;;;5115546;28;20256;-83
2022/07/21 13:11:18;;;;;;;4.70;4.30;;;30.10;84.70;;;;;;5113664;28;20239;-84
2022/07/21 13:14:03;;;;;;;5.20;4.80;;;31.30;78.60;;;;;;5117093;28;20195;-83
2022/07/21 13:16:48;;;;;;;5.30;4.90;;;30.10;78.20;;;;;;5119081;28;20267;-84
2022/07/21 13:19:35;;;;;;;5.05;4.55;;;29.50;81.90;;;;;;5101232;28;20229;-82
2022/07/21 13:22:20;;;;;;;5.57;5.05;;;30.40;81.60;;;;;;5118234;28;20204;-83
2022/07/21 13:25:06;;;;;;;4.63;4.22;;;31.60;77.30;;;;;;5118208;28;20336;-83
2022/07/21 13:27:50;;;;;;;4.18;3.88;;;30.80;76.20;;;;;;5116461;28;20173;-82
2022/07/21 13:30:35;;;;;;;6.17;5.57;;;30.10;77.80;;;;;;5094275;28;20319;-83
2022/07/21 13:33:20;;;;;;;5.40;4.80;;;29.40;80.70;;;;;;5127538;28;20188;-82
2022/07/21 13:36:07;;;;;;;4.10;3.80;;;29.60;80.20;;;;;;5099193;28;20184;-84
2022/07/21 13:38:51;;;;;;;5.20;4.70;;;29.90;81.30;;;;;;5118257;28;20216;-83
2022/07/21 13:41:37;;;;;;;5.30;4.80;;;29.50;82.00;;;;;;5124723;27;20636;-82
2022/07/21 13:44:25;;;;;;;4.77;4.40;;;29.40;84.50;;;;;;5124549;28;20465;-83
2022/07/21 13:47:11;;;;;;;5.73;5.17;;;29.70;82.90;;;;;;5112757;28;20893;-81
2022/07/21 13:49:57;;;;;;;4.27;3.97;;;29.70;83.40;;;;;;5058625;28;20440;-83
2022/07/21 13:52:43;;;;;;;5.57;4.90;;;29.80;82.00;;;;;;5061554;28;20503;-82
2022/07/21 13:55:28;;;;;;;4.40;4.00;;;29.80;80.40;;;;;;5070441;28;20428;-83
2022/07/21 13:58:12;;;;;;;4.60;4.30;;;29.40;81.80;;;;;;5068171;28;20178;-82
2022/07/21 14:00:58;;;;;;;5.30;4.90;;;29.30;80.00;;;;;;5058519;28;20496;-81
2022/07/21 14:03:45;;;;;;;5.10;4.60;;;30.40;78.20;;;;;;5063387;28;20475;-80
2022/07/21 14:06:29;;;;;;;4.65;4.00;;;30.60;76.90;;;;;;5069135;28;20189;-80
2022/07/21 14:09:16;;;;;;;5.30;4.80;;;30.40;75.80;;;;;;5062236;28;20707;-81
2022/07/21 14:12:02;;;;;;;5.00;4.60;;;30.00;75.50;;;;;;5054671;28;20226;-82
2022/07/21 14:14:47;;;;;;;4.07;3.78;;;30.60;77.50;;;;;;5066280;28;20564;-83
2022/07/21 14:17:31;;;;;;;4.10;3.80;;;31.40;72.80;;;;;;5065169;28;20256;-82
2022/07/21 14:20:16;;;;;;;4.20;3.90;;;31.10;70.90;;;;;;5067251;28;20226;-82
2022/07/21 14:23:00;;;;;;;4.63;4.30;;;31.80;70.10;;;;;;5073782;28;20386;-80